createdAt,value
2018-06-29T00:01:59.320Z,3.17
2018-06-29T00:04:30.818Z,3.03
2018-06-29T00:07:02.286Z,2.65
2018-06-29T00:09:35.151Z,2.83
2018-06-29T00:12:09.903Z,3.08
2018-06-29T00:14:42.967Z,2.85
2018-06-29T00:17:13.049Z,2.97
2018-06-29T00:19:45.085Z,3.17
2018-06-29T00:22:19.796Z,2.87
2018-06-29T00:24:50.587Z,3.10
2018-06-29T00:27:20.502Z,2.72
2018-06-29T00:29:50.537Z,2.62
2018-06-29T00:32:20.440Z,2.97
2018-06-29T00:34:53.340Z,2.90
2018-06-29T00:37:23.935Z,2.80
2018-06-29T00:39:57.599Z,3.08
2018-06-29T00:42:30.805Z,3.17
2018-06-29T00:45:03.945Z,3.25
2018-06-29T00:47:36.923Z,3.30
2018-06-29T00:50:08.689Z,3.12
2018-06-29T00:52:40.529Z,3.33
2018-06-29T00:55:12.061Z,3.33
2018-06-29T00:57:44.981Z,3.47
2018-06-29T01:00:16.560Z,3.35
2018-06-29T01:02:48.547Z,2.92
2018-06-29T01:05:19.019Z,3.33
2018-06-29T01:07:50.706Z,3.40
2018-06-29T01:10:20.793Z,2.90
2018-06-29T01:12:52.306Z,3.30
2018-06-29T01:15:24.135Z,3.20
2018-06-29T01:17:58.656Z,3.37
2018-06-29T01:20:31.816Z,3.47
2018-06-29T01:23:03.410Z,3.15
2018-06-29T01:25:34.933Z,3.60
2018-06-29T01:28:06.546Z,3.70
2018-06-29T01:30:38.144Z,4.05
2018-06-29T01:33:08.633Z,4.03
2018-06-29T01:35:43.533Z,3.65
2018-06-29T01:38:16.379Z,4.40
2018-06-29T01:40:47.939Z,4.28
2018-06-29T01:43:21.255Z,4.37
2018-06-29T01:45:51.397Z,4.30
2018-06-29T01:48:26.073Z,4.68
2018-06-29T01:50:59.587Z,4.55
2018-06-29T01:53:29.748Z,4.95
2018-06-29T01:56:04.788Z,5.12
2018-06-29T01:58:38.051Z,4.72
2018-06-29T02:01:12.632Z,4.97
2018-06-29T02:03:45.838Z,5.03
2018-06-29T02:06:15.879Z,4.87
2018-06-29T02:08:47.541Z,5.53
2018-06-29T02:11:17.602Z,5.45
2018-06-29T02:13:50.648Z,5.62
2018-06-29T02:16:23.667Z,5.40
2018-06-29T02:18:54.162Z,5.35
2018-06-29T02:21:27.017Z,5.45
2018-06-29T02:23:58.504Z,6.40
2018-06-29T02:26:31.561Z,5.90
2018-06-29T02:29:03.099Z,7.00
2018-06-29T02:31:36.312Z,6.18
2018-06-29T02:34:07.899Z,6.22
2018-06-29T02:36:40.317Z,5.60
2018-06-29T02:39:16.305Z,5.95
2018-06-29T02:41:48.512Z,6.00
2018-06-29T02:44:23.243Z,6.03
2018-06-29T02:46:56.852Z,7.12
2018-06-29T02:49:28.515Z,5.82
2018-06-29T02:52:00.057Z,6.18
2018-06-29T02:54:34.516Z,7.05
2018-06-29T02:57:08.985Z,6.82
2018-06-29T02:59:41.397Z,6.53
2018-06-29T03:02:15.053Z,7.28
2018-06-29T03:04:45.188Z,6.53
2018-06-29T03:07:18.229Z,7.30
2018-06-29T03:09:50.976Z,7.35
2018-06-29T03:12:22.485Z,6.82
2018-06-29T03:14:52.645Z,7.40
2018-06-29T03:17:22.572Z,7.95
2018-06-29T03:19:55.359Z,8.00
2018-06-29T03:22:30.290Z,7.20
2018-06-29T03:25:03.543Z,7.57
2018-06-29T03:27:38.112Z,7.90
2018-06-29T03:30:12.370Z,8.23
2018-06-29T03:32:45.548Z,8.75
2018-06-29T03:35:18.610Z,9.45
2018-06-29T03:37:51.491Z,9.20
2018-06-29T03:40:23.045Z,9.75
2018-06-29T03:42:55.969Z,10.00
2018-06-29T03:45:26.156Z,10.93
2018-06-29T03:47:59.243Z,12.10
2018-06-29T03:50:32.354Z,12.37
2018-06-29T03:53:04.273Z,12.90
2018-06-29T03:55:38.874Z,13.45
2018-06-29T03:58:10.447Z,13.10
2018-06-29T04:00:41.937Z,13.25
2018-06-29T04:03:16.486Z,14.07
2018-06-29T04:05:48.037Z,14.50
2018-06-29T04:08:19.607Z,14.48
2018-06-29T04:10:51.192Z,13.62
2018-06-29T04:13:22.633Z,13.88
2018-06-29T04:15:55.795Z,13.40
2018-06-29T04:18:26.193Z,13.68
2018-06-29T04:21:00.543Z,13.68
2018-06-29T04:23:34.018Z,12.20
2018-06-29T04:26:06.998Z,12.82
2018-06-29T04:28:39.266Z,13.00
2018-06-29T04:31:12.336Z,12.63
2018-06-29T04:33:46.728Z,12.60
2018-06-29T04:36:18.414Z,11.43
2018-06-29T04:38:49.802Z,13.55
2018-06-29T04:41:20.085Z,12.88
2018-06-29T04:43:51.665Z,13.18
2018-06-29T04:46:23.104Z,12.43
2018-06-29T04:48:55.978Z,11.60
2018-06-29T04:51:27.901Z,13.18
2018-06-29T04:53:57.850Z,12.27
2018-06-29T04:56:30.841Z,12.98
2018-06-29T04:59:02.276Z,11.85
2018-06-29T05:01:35.097Z,13.15
2018-06-29T05:04:07.141Z,11.65
2018-06-29T05:06:37.228Z,13.75
2018-06-29T05:09:13.243Z,14.30
2018-06-29T05:11:46.558Z,13.57
2018-06-29T05:14:16.536Z,13.00
2018-06-29T05:16:50.144Z,14.27
2018-06-29T05:19:22.280Z,13.60
2018-06-29T05:21:55.007Z,14.07
2018-06-29T05:24:29.048Z,13.40
2018-06-29T05:27:00.480Z,14.40
2018-06-29T05:29:31.927Z,13.32
2018-06-29T05:32:01.939Z,12.13
2018-06-29T05:34:33.347Z,13.60
2018-06-29T05:37:07.928Z,13.20
2018-06-29T05:39:42.347Z,11.90
2018-06-29T05:42:15.357Z,13.60
2018-06-29T05:44:48.337Z,13.02
2018-06-29T05:47:19.850Z,11.73
2018-06-29T05:49:51.251Z,14.32
2018-06-29T05:52:22.634Z,11.68
2018-06-29T05:54:55.619Z,12.52
2018-06-29T05:57:27.282Z,14.50
2018-06-29T06:00:01.652Z,11.90
2018-06-29T06:02:34.637Z,11.85
2018-06-29T06:05:09.225Z,12.68
2018-06-29T06:07:41.148Z,12.32
2018-06-29T06:10:14.878Z,11.30
2018-06-29T06:12:46.241Z,11.25
2018-06-29T06:15:16.191Z,12.52
2018-06-29T06:17:47.889Z,11.77
2018-06-29T06:20:20.228Z,10.55
2018-06-29T06:22:53.063Z,12.30
2018-06-29T06:25:25.084Z,12.60
2018-06-29T06:27:54.905Z,13.05
2018-06-29T06:30:27.905Z,13.88
2018-06-29T06:32:57.900Z,12.75
2018-06-29T06:35:30.766Z,13.27
2018-06-29T06:38:01.011Z,11.82
2018-06-29T06:40:34.009Z,10.65
2018-06-29T06:43:07.681Z,10.68
2018-06-29T06:45:40.571Z,10.52
2018-06-29T06:48:11.946Z,11.38
2018-06-29T06:50:43.631Z,11.38
2018-06-29T06:53:15.036Z,11.48
2018-06-29T06:55:48.424Z,11.65
2018-06-29T06:58:21.431Z,11.00
2018-06-29T07:00:56.368Z,11.10
2018-06-29T07:03:27.023Z,10.85
2018-06-29T07:05:57.009Z,11.20
2018-06-29T07:08:31.635Z,10.85
2018-06-29T07:11:04.630Z,9.27
2018-06-29T07:13:34.554Z,9.90
2018-06-29T07:16:06.382Z,10.60
2018-06-29T07:18:39.233Z,10.15
2018-06-29T07:21:10.715Z,10.52
2018-06-29T07:23:43.696Z,9.82
2018-06-29T07:26:13.580Z,8.82
2018-06-29T07:28:46.457Z,7.93
2018-06-29T07:31:19.503Z,7.87
2018-06-29T07:33:50.809Z,8.23
2018-06-29T07:36:23.788Z,6.78
2018-06-29T07:38:55.337Z,7.53
2018-06-29T07:41:26.770Z,7.28
2018-06-29T07:43:58.305Z,7.35
2018-06-29T07:46:28.975Z,6.75
2018-06-29T07:48:58.842Z,8.10
2018-06-29T07:51:30.220Z,8.68
2018-06-29T07:54:04.438Z,7.68
2018-06-29T07:56:35.788Z,7.35
2018-06-29T07:59:07.802Z,6.90
2018-06-29T08:01:37.853Z,6.53
2018-06-29T08:04:09.571Z,6.75
2018-06-29T08:06:39.476Z,6.68
2018-06-29T08:09:15.524Z,6.35
2018-06-29T08:11:47.469Z,6.43
2018-06-29T08:14:18.896Z,6.45
2018-06-29T08:16:51.742Z,6.05
2018-06-29T08:19:21.648Z,7.43
2018-06-29T08:21:54.527Z,5.82
2018-06-29T08:24:27.347Z,6.28
2018-06-29T08:27:01.634Z,6.07
2018-06-29T08:29:35.888Z,6.12
2018-06-29T08:32:06.366Z,5.47
2018-06-29T08:34:39.163Z,5.73
2018-06-29T08:37:10.721Z,6.18
2018-06-29T08:39:42.067Z,4.68
2018-06-29T08:42:13.397Z,5.43
2018-06-29T08:44:44.782Z,5.18
2018-06-29T08:47:17.872Z,5.65
2018-06-29T08:49:52.511Z,5.97
2018-06-29T08:52:22.926Z,5.32
2018-06-29T08:54:53.335Z,5.25
2018-06-29T08:57:25.849Z,4.72
2018-06-29T09:00:00.280Z,4.80
2018-06-29T09:02:34.810Z,40.60
2018-06-29T09:05:05.058Z,6.18
2018-06-29T09:07:36.339Z,5.90
2018-06-29T09:10:08.684Z,5.57
2018-06-29T09:12:41.539Z,5.53
2018-06-29T09:15:16.303Z,5.03
2018-06-29T09:17:47.633Z,5.40
2018-06-29T09:20:19.729Z,5.18
2018-06-29T09:22:52.686Z,5.80
2018-06-29T09:25:24.111Z,5.53
2018-06-29T09:27:55.512Z,6.20
2018-06-29T09:30:27.713Z,4.82
2018-06-29T09:33:01.902Z,5.72
2018-06-29T09:35:33.345Z,5.55
2018-06-29T09:38:04.316Z,5.12
2018-06-29T09:40:35.657Z,5.20
2018-06-29T09:43:07.088Z,5.65
2018-06-29T09:45:41.321Z,5.12
2018-06-29T09:48:15.796Z,5.37
2018-06-29T09:50:48.718Z,5.28
2018-06-29T09:53:21.627Z,6.00
2018-06-29T09:55:54.662Z,6.10
2018-06-29T09:58:27.509Z,6.10
2018-06-29T10:00:58.946Z,6.40
2018-06-29T10:03:31.975Z,6.68
2018-06-29T10:06:05.608Z,5.15
2018-06-29T10:08:36.946Z,5.35
2018-06-29T10:11:09.931Z,5.50
2018-06-29T10:13:42.804Z,5.18
2018-06-29T10:16:14.513Z,4.90
2018-06-29T10:18:45.853Z,4.50
2018-06-29T10:21:18.999Z,4.78
2018-06-29T10:23:49.048Z,4.53
2018-06-29T10:26:18.934Z,4.03
2018-06-29T10:28:51.794Z,3.22
2018-06-29T10:31:24.724Z,3.95
2018-06-29T10:33:57.668Z,4.40
2018-06-29T10:36:30.878Z,5.12
2018-06-29T10:39:03.350Z,4.57
2018-06-29T10:41:36.656Z,4.80
2018-06-29T10:44:08.081Z,4.43
2018-06-29T10:46:40.491Z,4.53
2018-06-29T10:49:12.252Z,4.45
2018-06-29T10:51:43.888Z,4.20
2018-06-29T10:54:15.950Z,3.80
2018-06-29T10:56:48.985Z,4.03
2018-06-29T10:59:18.871Z,3.40
2018-06-29T11:01:53.231Z,3.03
2018-06-29T11:04:27.535Z,4.07
2018-06-29T11:07:00.714Z,3.15
2018-06-29T11:09:33.491Z,3.55
2018-06-29T11:12:15.281Z,4.18
2018-06-29T11:14:46.812Z,3.20
2018-06-29T11:17:19.643Z,3.30
2018-06-29T11:19:51.408Z,3.25
2018-06-29T11:22:23.034Z,4.10
2018-06-29T11:24:55.996Z,3.30
2018-06-29T11:27:28.875Z,3.47
2018-06-29T11:30:00.176Z,3.35
2018-06-29T11:32:33.114Z,3.00
2018-06-29T11:35:06.216Z,3.40
2018-06-29T11:37:40.239Z,3.00
2018-06-29T11:40:13.111Z,2.97
2018-06-29T11:42:45.902Z,3.12
2018-06-29T11:45:18.793Z,3.28
2018-06-29T11:47:53.108Z,2.70
2018-06-29T11:50:24.672Z,2.97
2018-06-29T11:52:59.339Z,3.10
2018-06-29T11:55:32.182Z,3.33
2018-06-29T11:58:05.077Z,2.95
2018-06-29T12:00:35.018Z,2.25
2018-06-29T12:03:06.861Z,2.50
2018-06-29T12:05:36.870Z,2.60
2018-06-29T12:08:08.467Z,2.20
2018-06-29T12:10:40.051Z,2.67
2018-06-29T12:13:12.859Z,2.35
2018-06-29T12:15:44.307Z,1.85
2018-06-29T12:18:17.178Z,2.20
2018-06-29T12:20:50.046Z,2.20
2018-06-29T12:23:22.759Z,2.85
2018-06-29T12:25:52.698Z,2.83
2018-06-29T12:28:24.485Z,1.87
2018-06-29T12:30:58.213Z,2.37
2018-06-29T12:33:28.208Z,2.45
2018-06-29T12:36:02.873Z,2.87
2018-06-29T12:38:33.882Z,2.20
2018-06-29T12:41:05.809Z,2.30
2018-06-29T12:43:37.453Z,2.28
2018-06-29T12:46:12.118Z,3.70
2018-06-29T12:48:45.303Z,2.20
2018-06-29T12:51:19.580Z,2.47
2018-06-29T12:53:51.333Z,2.03
2018-06-29T12:56:24.258Z,2.30
2018-06-29T12:58:56.099Z,2.35
2018-06-29T13:01:26.026Z,2.25
2018-06-29T13:04:00.540Z,2.47
2018-06-29T13:06:33.509Z,2.47
2018-06-29T13:09:06.431Z,2.60
2018-06-29T13:11:39.862Z,2.42
2018-06-29T13:14:14.127Z,2.80
2018-06-29T13:16:45.434Z,2.95
2018-06-29T13:19:19.068Z,3.20
2018-06-29T13:21:51.968Z,2.62
2018-06-29T13:24:26.188Z,2.72
2018-06-29T13:26:57.670Z,2.80
2018-06-29T13:29:29.289Z,2.90
2018-06-29T13:32:02.109Z,2.83
2018-06-29T13:34:31.213Z,2.65
2018-06-29T13:37:05.727Z,3.05
2018-06-29T13:39:38.695Z,2.72
2018-06-29T13:42:10.888Z,2.90
2018-06-29T13:44:45.356Z,2.33
2018-06-29T13:47:18.210Z,2.72
2018-06-29T13:49:51.433Z,2.58
2018-06-29T13:52:24.625Z,2.50
2018-06-29T13:54:56.358Z,2.72
2018-06-29T13:57:27.725Z,2.80
2018-06-29T13:59:59.519Z,2.83
2018-06-29T14:02:30.985Z,3.20
2018-06-29T14:05:04.505Z,2.90
2018-06-29T14:07:37.316Z,3.80
2018-06-29T14:10:10.636Z,2.65
2018-06-29T14:12:43.543Z,3.28
2018-06-29T14:15:17.847Z,3.25
2018-06-29T14:17:49.901Z,2.85
2018-06-29T14:20:22.778Z,2.60
2018-06-29T14:22:54.216Z,2.30
2018-06-29T14:25:24.094Z,2.53
2018-06-29T14:27:57.066Z,3.05
2018-06-29T14:30:31.606Z,2.30
2018-06-29T14:33:03.743Z,2.83
2018-06-29T14:35:35.132Z,2.50
2018-06-29T14:38:09.664Z,2.50
2018-06-29T14:40:41.036Z,2.70
2018-06-29T14:43:10.891Z,2.80
2018-06-29T14:45:44.026Z,2.62
2018-06-29T14:48:15.695Z,3.17
2018-06-29T14:50:47.155Z,2.80
2018-06-29T14:53:19.122Z,3.22
2018-06-29T14:55:48.991Z,3.40
2018-06-29T14:58:18.649Z,3.87
2018-06-29T15:00:51.229Z,3.50
2018-06-29T15:03:24.087Z,3.90
2018-06-29T15:05:55.441Z,3.70
2018-06-29T15:08:28.587Z,5.15
2018-06-29T15:10:58.565Z,4.62
2018-06-29T15:13:28.518Z,5.30
2018-06-29T15:16:00.022Z,4.10
2018-06-29T15:18:32.902Z,3.75
2018-06-29T15:21:07.259Z,4.03
2018-06-29T15:23:38.112Z,5.37
2018-06-29T15:26:10.988Z,4.75
2018-06-29T15:28:40.995Z,5.57
2018-06-29T15:31:12.705Z,5.30
2018-06-29T15:33:44.149Z,5.03
2018-06-29T15:36:15.522Z,5.95
2018-06-29T15:38:47.709Z,5.10
2018-06-29T15:41:18.246Z,5.60
2018-06-29T15:43:51.620Z,5.30
2018-06-29T15:46:24.447Z,4.90
2018-06-29T15:48:57.376Z,5.47
2018-06-29T15:51:30.431Z,4.70
2018-06-29T15:54:03.521Z,5.40
2018-06-29T15:56:36.424Z,6.47
2018-06-29T15:59:06.418Z,6.70
2018-06-29T16:01:40.859Z,6.45
2018-06-29T16:04:12.228Z,6.35
2018-06-29T16:06:42.140Z,7.65
2018-06-29T16:09:13.531Z,7.00
2018-06-29T16:11:44.088Z,6.78
2018-06-29T16:14:15.333Z,6.97
2018-06-29T16:16:50.031Z,6.03
2018-06-29T16:19:22.930Z,6.97
2018-06-29T16:21:57.632Z,6.32
2018-06-29T16:24:30.490Z,5.12
2018-06-29T16:27:01.902Z,5.62
2018-06-29T16:29:34.828Z,4.32
2018-06-29T16:32:05.340Z,5.10
2018-06-29T16:34:36.760Z,5.37
2018-06-29T16:37:06.836Z,5.05
2018-06-29T16:39:37.853Z,6.12
2018-06-29T16:42:09.331Z,5.45
2018-06-29T16:44:40.696Z,5.78
2018-06-29T16:47:12.013Z,6.25
2018-06-29T16:49:44.928Z,5.85
2018-06-29T16:52:15.013Z,5.97
2018-06-29T16:54:49.285Z,5.35
2018-06-29T16:57:22.615Z,4.65
2018-06-29T16:59:54.017Z,5.47
2018-06-29T17:02:26.870Z,4.80
2018-06-29T17:05:00.064Z,4.62
2018-06-29T17:07:33.117Z,4.47
2018-06-29T17:10:03.043Z,4.95
2018-06-29T17:12:34.405Z,4.70
2018-06-29T17:15:04.268Z,4.78
2018-06-29T17:17:34.290Z,4.65
2018-06-29T17:20:05.902Z,4.45
2018-06-29T17:22:38.896Z,5.05
2018-06-29T17:25:08.832Z,4.80
2018-06-29T17:27:41.590Z,5.03
2018-06-29T17:30:11.659Z,5.15
2018-06-29T17:32:41.585Z,4.75
2018-06-29T17:35:14.468Z,4.62
2018-06-29T17:37:46.407Z,4.68
2018-06-29T17:40:16.479Z,4.90
2018-06-29T17:42:48.440Z,6.28
2018-06-29T17:45:19.821Z,5.82
2018-06-29T17:47:52.924Z,5.80
2018-06-29T17:50:26.030Z,4.90
2018-06-29T17:52:56.847Z,6.15
2018-06-29T17:55:26.907Z,6.03
2018-06-29T17:57:58.211Z,6.03
2018-06-29T18:00:29.213Z,6.15
2018-06-29T18:03:00.703Z,6.30
2018-06-29T18:05:33.676Z,5.50
2018-06-29T18:08:07.980Z,5.82
2018-06-29T18:10:37.985Z,6.45
2018-06-29T18:13:09.591Z,5.97
2018-06-29T18:15:42.368Z,6.28
2018-06-29T18:18:15.560Z,6.35
2018-06-29T18:20:48.490Z,4.68
2018-06-29T18:23:18.517Z,6.57
2018-06-29T18:25:50.012Z,6.28
2018-06-29T18:28:22.858Z,5.22
2018-06-29T18:30:57.346Z,5.70
2018-06-29T18:33:27.754Z,5.95
2018-06-29T18:36:02.088Z,5.87
2018-06-29T18:38:36.398Z,6.10
2018-06-29T18:41:06.365Z,5.47
2018-06-29T18:43:38.396Z,5.95
2018-06-29T18:46:11.493Z,6.53
2018-06-29T18:48:45.966Z,6.80
2018-06-29T18:51:16.034Z,6.22
2018-06-29T18:53:47.792Z,6.85
2018-06-29T18:56:20.842Z,6.90
2018-06-29T18:58:52.512Z,6.57
2018-06-29T19:01:23.959Z,7.03
2018-06-29T19:03:55.474Z,7.25
2018-06-29T19:06:27.385Z,7.35
2018-06-29T19:09:00.288Z,6.80
2018-06-29T19:11:30.439Z,6.50
2018-06-29T19:14:02.179Z,5.87
2018-06-29T19:16:35.087Z,6.30
2018-06-29T19:19:07.053Z,7.05
2018-06-29T19:21:40.231Z,6.97
2018-06-29T19:24:14.737Z,6.35
2018-06-29T19:26:47.549Z,5.78
2018-06-29T19:29:18.947Z,5.70
2018-06-29T19:31:50.438Z,6.68
2018-06-29T19:34:22.402Z,6.20
2018-06-29T19:36:52.395Z,6.85
2018-06-29T19:39:23.753Z,5.87
2018-06-29T19:41:56.985Z,6.20
2018-06-29T19:44:31.588Z,6.72
2018-06-29T19:47:04.579Z,6.07
2018-06-29T19:49:35.143Z,7.00
2018-06-29T19:52:09.566Z,6.43
2018-06-29T19:54:42.456Z,6.78
2018-06-29T19:57:13.451Z,6.20
2018-06-29T19:59:43.462Z,6.60
2018-06-29T20:02:14.870Z,7.10
2018-06-29T20:04:46.530Z,6.97
2018-06-29T20:07:20.896Z,7.62
2018-06-29T20:09:55.371Z,7.53
2018-06-29T20:12:26.793Z,7.20
2018-06-29T20:15:01.365Z,7.00
2018-06-29T20:17:35.909Z,7.68
2018-06-29T20:20:12.501Z,6.20
2018-06-29T20:22:45.537Z,7.87
2018-06-29T20:25:18.567Z,6.93
2018-06-29T20:27:49.971Z,8.25
2018-06-29T20:30:23.049Z,8.15
2018-06-29T20:32:57.694Z,7.80
2018-06-29T20:35:29.160Z,7.95
2018-06-29T20:38:02.321Z,7.25
2018-06-29T20:40:35.316Z,8.10
2018-06-29T20:43:10.074Z,8.50
2018-06-29T20:45:40.720Z,7.68
2018-06-29T20:48:12.356Z,7.95
2018-06-29T20:50:43.963Z,9.15
2018-06-29T20:53:16.895Z,9.82
2018-06-29T20:55:49.919Z,9.50
2018-06-29T20:58:21.465Z,9.60
2018-06-29T21:00:56.193Z,10.18
2018-06-29T21:03:27.725Z,10.10
2018-06-29T21:06:00.686Z,9.05
2018-06-29T21:08:33.728Z,9.15
2018-06-29T21:11:05.702Z,9.32
2018-06-29T21:13:38.042Z,8.50
2018-06-29T21:16:09.215Z,8.77
2018-06-29T21:18:43.891Z,8.70
2018-06-29T21:21:16.854Z,9.07
2018-06-29T21:23:48.279Z,9.32
2018-06-29T21:26:21.267Z,10.05
2018-06-29T21:28:51.193Z,8.57
2018-06-29T21:31:25.563Z,10.20
2018-06-29T21:33:58.638Z,9.50
2018-06-29T21:36:30.346Z,10.07
2018-06-29T21:39:01.538Z,8.93
2018-06-29T21:41:34.540Z,10.15
2018-06-29T21:44:07.948Z,9.90
2018-06-29T21:46:41.129Z,10.15
2018-06-29T21:49:12.618Z,9.38
2018-06-29T21:51:44.384Z,9.90
2018-06-29T21:54:16.082Z,9.70
2018-06-29T21:56:48.903Z,9.18
2018-06-29T21:59:20.511Z,9.02
2018-06-29T22:01:52.084Z,9.75
2018-06-29T22:04:26.665Z,8.48
2018-06-29T22:06:58.264Z,9.68
2018-06-29T22:09:28.196Z,9.18
2018-06-29T22:12:00.008Z,11.05
2018-06-29T22:14:33.602Z,9.15
2018-06-29T22:17:05.191Z,10.23
2018-06-29T22:19:37.669Z,9.98
2018-06-29T22:22:09.282Z,10.43
2018-06-29T22:24:42.635Z,10.95
2018-06-29T22:27:17.040Z,9.88
2018-06-29T22:29:48.679Z,9.85
2018-06-29T22:32:20.422Z,10.65
2018-06-29T22:34:53.385Z,10.63
2018-06-29T22:37:23.399Z,10.77
2018-06-29T22:39:55.280Z,10.77
2018-06-29T22:42:26.728Z,10.32
2018-06-29T22:44:57.482Z,10.85
2018-06-29T22:47:27.548Z,11.15
2018-06-29T22:49:59.280Z,11.05
2018-06-29T22:52:29.272Z,11.10
2018-06-29T22:54:59.469Z,12.23
2018-06-29T22:57:29.545Z,11.60
2018-06-29T23:00:02.753Z,12.00
2018-06-29T23:02:34.310Z,12.00
2018-06-29T23:05:06.567Z,11.50
2018-06-29T23:07:41.217Z,11.85
2018-06-29T23:10:15.619Z,12.00
2018-06-29T23:12:45.755Z,12.10
2018-06-29T23:15:19.007Z,11.95
2018-06-29T23:17:49.046Z,12.75
2018-06-29T23:20:21.962Z,13.90
2018-06-29T23:22:55.391Z,11.77
2018-06-29T23:25:27.067Z,12.52
2018-06-29T23:27:57.041Z,12.10
2018-06-29T23:30:28.890Z,13.43
2018-06-29T23:33:00.943Z,13.50
2018-06-29T23:35:33.914Z,15.57
2018-06-29T23:38:07.271Z,12.50
2018-06-29T23:40:38.907Z,12.32
2018-06-29T23:43:10.361Z,11.77
2018-06-29T23:45:43.844Z,11.55
2018-06-29T23:48:15.747Z,11.60
2018-06-29T23:50:48.712Z,12.37
2018-06-29T23:53:20.216Z,10.98
2018-06-29T23:55:51.814Z,11.32
2018-06-29T23:58:23.605Z,10.55
